Terminal Aerodrome Forecast
Issued by NWS

Home | Current Version | Previous Version | Text Only | Print | Product List | Glossary On
Versions: 1 2 3 4 5 6 7 8 9 10 11 12 13
000
FTUS45 KPSR 272325
TAFIWA
TAF
KIWA 272325Z 2800/2824 26010KT P6SM BKN250
      TEMPO 2800/2801 28012G20KT
     FM280900 14006KT P6SM SCT250
     FM281600 26008KT P6SM FEW250
     FM282100 28020G28KT P6SM FEW250
      AMD LTD TO CLD VIS AND WIND 2803/2813=

USA.gov is the U.S. government's official web portal to all federal, state and local government web resources and services.